Time;durP1;ratioP1;P1;durP2;ratioP2;P2;SDS_P1;SDS_P2;PMS_P1;PMS_P2;Temp;Humidity;BMP_temperature;BMP_pressure;BME280_temperature;BME280_humidity;BME280_pressure;Samples;Min_cycle;Max_cycle;Signal;HPM_P1;HPM_P2
2023/08/23 00:00:03;;;;;;;3.35;1.63;;;14.60;99.90;;;;;;5055192;28;20037;-79
2023/08/23 00:02:29;;;;;;;3.55;1.80;;;14.60;99.90;;;;;;5057117;28;20052;-79
2023/08/23 00:04:55;;;;;;;3.30;2.00;;;14.40;99.90;;;;;;5056445;28;20151;-78
2023/08/23 00:07:21;;;;;;;3.88;2.20;;;14.40;99.90;;;;;;5055259;28;20041;-78
2023/08/23 00:09:46;;;;;;;3.08;2.00;;;14.30;99.90;;;;;;5054189;28;20048;-78
2023/08/23 00:12:12;;;;;;;3.47;1.63;;;14.20;99.90;;;;;;5054705;28;20045;-78
2023/08/23 00:14:38;;;;;;;4.50;2.00;;;14.20;99.90;;;;;;5054939;28;20049;-78
2023/08/23 00:17:04;;;;;;;3.35;1.85;;;14.20;99.90;;;;;;5054040;28;20102;-77
2023/08/23 00:19:30;;;;;;;2.88;2.10;;;14.20;99.90;;;;;;5054630;28;20048;-79
2023/08/23 00:21:56;;;;;;;2.92;2.00;;;14.20;99.90;;;;;;5054712;28;20107;-78
2023/08/23 00:24:21;;;;;;;5.30;2.75;;;14.20;99.90;;;;;;5054326;28;20505;-78
2023/08/23 00:26:47;;;;;;;3.70;2.20;;;14.30;99.90;;;;;;5054455;28;20060;-78
2023/08/23 00:29:13;;;;;;;3.17;2.45;;;14.40;99.90;;;;;;5036088;28;20061;-79
2023/08/23 00:31:38;;;;;;;4.03;1.92;;;14.30;99.90;;;;;;5054406;28;20049;-78
2023/08/23 00:34:04;;;;;;;2.95;1.95;;;14.20;99.90;;;;;;5054077;28;20076;-79
2023/08/23 00:36:30;;;;;;;4.45;2.10;;;14.00;99.90;;;;;;5053806;28;20095;-79
2023/08/23 00:38:55;;;;;;;3.35;2.20;;;13.90;99.90;;;;;;5053774;28;20051;-78
2023/08/23 00:41:24;;;;;;;3.30;2.13;;;13.80;99.90;;;;;;5052417;28;20045;-79
2023/08/23 00:43:50;;;;;;;2.85;1.98;;;13.80;99.90;;;;;;5052735;28;20079;-79
2023/08/23 00:46:17;;;;;;;3.70;2.22;;;13.80;99.90;;;;;;5053606;28;20037;-80
2023/08/23 00:48:44;;;;;;;3.42;2.38;;;13.70;99.90;;;;;;5053578;28;20045;-79
2023/08/23 00:51:12;;;;;;;4.47;2.72;;;13.80;99.90;;;;;;5054029;28;20049;-79
2023/08/23 00:53:38;;;;;;;4.25;2.20;;;13.80;99.90;;;;;;5052528;28;20041;-79
2023/08/23 00:56:05;;;;;;;5.18;2.30;;;13.80;99.90;;;;;;5053592;28;20119;-79
2023/08/23 00:58:31;;;;;;;3.72;2.20;;;13.90;99.90;;;;;;5036508;28;20505;-79
2023/08/23 01:00:57;;;;;;;19.52;3.10;;;13.90;99.90;;;;;;5053639;28;20037;-78
2023/08/23 01:03:23;;;;;;;3.40;1.80;;;13.90;99.90;;;;;;5053990;28;20123;-79
2023/08/23 01:05:57;;;;;;;1.63;1.10;;;13.90;99.90;;;;;;5036750;28;20041;-79
2023/08/23 01:08:42;;;;;;;4.35;1.60;;;13.90;99.90;;;;;;5054282;28;20374;-79
2023/08/23 01:11:21;;;;;;;2.13;1.50;;;13.80;99.90;;;;;;5053685;28;20100;-79
2023/08/23 01:14:03;;;;;;;39.42;4.10;;;13.90;99.90;;;;;;5036205;28;20047;-80
2023/08/23 01:16:34;;;;;;;24.80;3.20;;;13.90;99.90;;;;;;5053345;28;20104;-79
2023/08/23 01:19:16;;;;;;;17.88;3.35;;;13.80;99.90;;;;;;5053367;28;20057;-79
2023/08/23 01:21:46;;;;;;;11.63;3.35;;;13.80;99.90;;;;;;5053328;28;20102;-78
2023/08/23 01:24:12;;;;;;;28.17;4.28;;;13.80;99.90;;;;;;5035735;28;20090;-79
2023/08/23 01:26:43;;;;;;;21.95;3.47;;;13.90;99.90;;;;;;5053204;28;20045;-79
2023/08/23 01:29:08;;;;;;;30.38;2.55;;;14.00;99.90;;;;;;5035270;28;20486;-79
2023/08/23 01:31:39;;;;;;;17.05;2.75;;;14.00;99.90;;;;;;5053160;28;20045;-78
2023/08/23 01:34:15;;;;;;;28.90;3.75;;;14.00;99.90;;;;;;5053773;28;20424;-78
2023/08/23 01:36:42;;;;;;;48.42;3.97;;;13.90;99.90;;;;;;5053661;28;20124;-79
2023/08/23 01:39:09;;;;;;;25.75;3.78;;;13.70;99.90;;;;;;5053524;28;20049;-78
2023/08/23 01:41:35;;;;;;;12.93;1.80;;;13.60;99.90;;;;;;5053056;28;20060;-78
2023/08/23 01:44:01;;;;;;;19.10;2.22;;;13.60;99.90;;;;;;5053122;28;20056;-79
2023/08/23 01:46:28;;;;;;;36.20;2.10;;;13.60;99.90;;;;;;5053130;28;20045;-78
2023/08/23 01:48:53;;;;;;;9.55;2.13;;;13.60;99.90;;;;;;5053014;28;20049;-79
2023/08/23 01:51:19;;;;;;;5.93;2.20;;;13.60;99.90;;;;;;5053024;28;20075;-79
2023/08/23 01:53:45;;;;;;;12.23;2.28;;;13.60;99.90;;;;;;5053230;28;20045;-79
2023/08/23 01:56:10;;;;;;;17.92;2.33;;;13.70;99.90;;;;;;5053005;28;20490;-79
2023/08/23 01:58:36;;;;;;;27.25;4.32;;;13.70;99.90;;;;;;5053252;28;20501;-77
2023/08/23 02:01:02;;;;;;;14.52;2.10;;;13.70;99.90;;;;;;5052989;28;20452;-78
2023/08/23 02:03:27;;;;;;;14.82;2.70;;;13.70;99.90;;;;;;5053165;28;20044;-78
2023/08/23 02:05:56;;;;;;;10.52;2.92;;;13.70;99.90;;;;;;5056129;28;20048;-77
2023/08/23 02:08:22;;;;;;;14.18;2.50;;;13.60;99.90;;;;;;5056458;28;20048;-78
2023/08/23 02:10:48;;;;;;;5.85;2.63;;;13.60;99.90;;;;;;5056105;28;20158;-78
2023/08/23 02:13:13;;;;;;;11.20;2.38;;;13.60;99.90;;;;;;5056626;28;20059;-78
2023/08/23 02:15:39;;;;;;;14.88;3.20;;;13.70;99.90;;;;;;5056882;28;20378;-78
2023/08/23 02:18:05;;;;;;;12.55;3.13;;;13.70;99.90;;;;;;5056522;28;20045;-78
2023/08/23 02:20:30;;;;;;;3.80;2.75;;;13.80;99.90;;;;;;5056208;28;20091;-77
2023/08/23 02:22:56;;;;;;;3.55;2.35;;;13.90;99.90;;;;;;5056217;28;20080;-78
2023/08/23 02:25:22;;;;;;;3.60;2.58;;;13.90;99.90;;;;;;5056692;28;20088;-78
2023/08/23 02:27:47;;;;;;;3.55;2.38;;;14.00;99.90;;;;;;5038218;28;20090;-78
2023/08/23 02:30:13;;;;;;;3.67;2.38;;;14.00;99.90;;;;;;5056116;28;20088;-78
2023/08/23 02:32:39;;;;;;;6.10;2.92;;;14.00;99.90;;;;;;5057176;28;20462;-76
2023/08/23 02:35:05;;;;;;;4.20;2.50;;;14.00;99.90;;;;;;5056604;28;20386;-78
2023/08/23 02:37:30;;;;;;;4.28;2.55;;;13.90;99.90;;;;;;5055584;28;20067;-78
2023/08/23 02:39:56;;;;;;;5.75;3.47;;;13.80;99.90;;;;;;5055934;28;20045;-78
2023/08/23 02:42:22;;;;;;;3.58;2.50;;;13.70;99.90;;;;;;5056182;28;20052;-78
2023/08/23 02:44:47;;;;;;;3.00;2.13;;;13.60;99.90;;;;;;5055856;28;20462;-77
2023/08/23 02:47:13;;;;;;;56.70;5.30;;;13.70;99.90;;;;;;5056683;28;20365;-78
2023/08/23 02:49:39;;;;;;;5.97;3.17;;;13.60;99.90;;;;;;5056194;28;20045;-78
2023/08/23 02:52:04;;;;;;;5.18;2.90;;;13.60;99.90;;;;;;5055655;28;20045;-78
2023/08/23 02:54:30;;;;;;;20.23;3.95;;;13.50;99.90;;;;;;5038529;28;20103;-78
2023/08/23 02:56:56;;;;;;;7.03;3.13;;;13.50;99.90;;;;;;5038046;28;20048;-78
2023/08/23 02:59:21;;;;;;;14.52;3.95;;;13.40;99.90;;;;;;5055473;28;20052;-78
2023/08/23 03:01:47;;;;;;;16.02;4.13;;;13.40;99.90;;;;;;5038005;28;20041;-78
2023/08/23 03:04:13;;;;;;;27.90;5.75;;;13.40;99.90;;;;;;5037852;28;20474;-77
2023/08/23 03:06:38;;;;;;;5.28;3.35;;;13.40;99.90;;;;;;5055483;28;20040;-79
2023/08/23 03:09:04;;;;;;;4.60;2.25;;;13.40;99.90;;;;;;5055921;28;20052;-78
2023/08/23 03:11:30;;;;;;;5.78;2.75;;;13.50;99.90;;;;;;5055350;28;20056;-77
2023/08/23 03:13:57;;;;;;;8.48;4.60;;;13.40;99.90;;;;;;5055309;28;20041;-78
2023/08/23 03:16:22;;;;;;;24.15;6.07;;;13.50;99.90;;;;;;5036971;28;20389;-77
2023/08/23 03:18:48;;;;;;;23.45;5.85;;;13.40;99.90;;;;;;5055701;28;20037;-77
2023/08/23 03:21:14;;;;;;;20.90;5.13;;;13.30;99.90;;;;;;5055129;28;20045;-77
2023/08/23 03:23:39;;;;;;;7.43;4.60;;;13.30;99.90;;;;;;5055032;28;20045;-76
2023/08/23 03:26:05;;;;;;;6.32;4.43;;;13.30;99.90;;;;;;5055044;28;20056;-76
2023/08/23 03:28:31;;;;;;;8.25;4.00;;;13.20;99.90;;;;;;5054813;28;20040;-76
2023/08/23 03:31:03;;;;;;;6.57;4.10;;;13.20;99.90;;;;;;5055396;28;20045;-77
2023/08/23 03:33:30;;;;;;;12.65;4.63;;;13.20;99.90;;;;;;5054880;28;20063;-77
2023/08/23 03:35:56;;;;;;;27.48;5.68;;;13.30;99.90;;;;;;5054585;28;20508;-78
2023/08/23 03:38:21;;;;;;;6.03;3.97;;;13.30;99.90;;;;;;5054893;28;20084;-78
2023/08/23 03:40:50;;;;;;;7.47;4.72;;;13.40;99.90;;;;;;5037061;28;20095;-77
2023/08/23 03:43:15;;;;;;;5.65;4.30;;;13.50;99.90;;;;;;5054752;28;20049;-78
2023/08/23 03:45:48;;;;;;;5.20;3.65;;;13.50;99.90;;;;;;5055465;28;20048;-77
2023/08/23 03:48:17;;;;;;;9.93;4.13;;;13.50;99.90;;;;;;5054603;28;20548;-78
2023/08/23 03:50:42;;;;;;;120.30;10.35;;;13.60;99.90;;;;;;5054442;28;20094;-77
2023/08/23 03:53:08;;;;;;;16.85;4.47;;;13.50;99.90;;;;;;5054355;28;20481;-77
2023/08/23 03:55:36;;;;;;;49.67;7.55;;;13.40;99.90;;;;;;5053525;28;20037;-77
2023/08/23 03:58:06;;;;;;;43.13;6.45;;;13.30;99.90;;;;;;5054660;28;20497;-76
2023/08/23 04:00:31;;;;;;;90.38;10.25;;;13.30;99.90;;;;;;5054415;28;20042;-77
2023/08/23 04:02:58;;;;;;;14.00;6.93;;;13.30;99.90;;;;;;5037072;28;20041;-77
2023/08/23 04:05:23;;;;;;;74.50;10.68;;;13.40;99.90;;;;;;5054324;28;20071;-77
2023/08/23 04:07:49;;;;;;;19.38;6.68;;;13.40;99.90;;;;;;5054234;28;20045;-77
2023/08/23 04:10:15;;;;;;;45.20;6.72;;;13.40;99.90;;;;;;5054590;28;20417;-77
2023/08/23 04:12:40;;;;;;;81.03;8.52;;;13.40;99.90;;;;;;5054846;28;20055;-78
2023/08/23 04:15:06;;;;;;;106.07;10.65;;;13.50;99.90;;;;;;5054082;28;20505;-78
2023/08/23 04:17:32;;;;;;;107.65;9.90;;;13.40;99.90;;;;;;5020041;28;20045;-77
2023/08/23 04:19:58;;;;;;;87.95;8.32;;;13.40;99.90;;;;;;5054185;28;20041;-77
2023/08/23 04:22:23;;;;;;;88.75;10.77;;;13.40;99.90;;;;;;5053248;28;20045;-77
2023/08/23 04:24:49;;;;;;;29.38;7.28;;;13.50;99.90;;;;;;5053735;28;20127;-77
2023/08/23 04:27:15;;;;;;;34.45;7.32;;;13.50;99.90;;;;;;5036030;28;20056;-76
2023/08/23 04:29:41;;;;;;;34.97;7.38;;;13.60;99.90;;;;;;5053662;28;20466;-78
2023/08/23 04:32:10;;;;;;;15.07;7.40;;;13.70;99.90;;;;;;5053586;28;20136;-77
2023/08/23 04:34:35;;;;;;;18.23;7.55;;;13.80;99.90;;;;;;5053974;28;20053;-77
2023/08/23 04:37:01;;;;;;;11.20;8.45;;;13.90;99.90;;;;;;5053865;28;20055;-77
2023/08/23 04:39:27;;;;;;;15.45;7.63;;;14.00;99.90;;;;;;5053773;28;20048;-78
2023/08/23 04:41:52;;;;;;;38.05;8.50;;;14.00;99.90;;;;;;5053744;28;20049;-77
2023/08/23 04:44:18;;;;;;;21.17;7.72;;;14.10;99.90;;;;;;5054259;28;20044;-78
2023/08/23 04:46:44;;;;;;;23.27;8.50;;;14.20;99.90;;;;;;5053625;28;20134;-77
2023/08/23 04:49:10;;;;;;;16.27;8.98;;;14.20;99.90;;;;;;5052412;28;20059;-77
2023/08/23 04:51:35;;;;;;;19.17;8.32;;;14.30;99.90;;;;;;5054241;28;20088;-77
2023/08/23 04:54:01;;;;;;;19.52;8.48;;;14.40;99.90;;;;;;5053626;28;20079;-78
2023/08/23 04:56:27;;;;;;;20.60;8.05;;;14.40;99.90;;;;;;5053604;28;20044;-78
2023/08/23 04:58:53;;;;;;;15.27;8.32;;;14.50;99.90;;;;;;5053550;28;20049;-78
2023/08/23 05:01:18;;;;;;;13.30;8.77;;;14.50;99.90;;;;;;5053545;28;20080;-77
2023/08/23 05:03:44;;;;;;;11.00;8.00;;;14.60;99.90;;;;;;5053731;28;20060;-78
2023/08/23 05:06:10;;;;;;;12.85;8.70;;;14.70;99.90;;;;;;5054314;28;20060;-78
2023/08/23 05:08:36;;;;;;;13.13;9.43;;;14.80;99.90;;;;;;5053443;28;20048;-78
2023/08/23 05:11:02;;;;;;;12.13;9.18;;;14.90;99.90;;;;;;5053584;28;20077;-77
2023/08/23 05:13:27;;;;;;;12.30;8.63;;;15.00;99.90;;;;;;5054150;28;20401;-77
2023/08/23 05:15:57;;;;;;;13.27;10.10;;;15.00;99.90;;;;;;5055273;28;20409;-77
2023/08/23 05:18:23;;;;;;;14.43;10.02;;;15.10;99.90;;;;;;5056340;28;20070;-77
2023/08/23 05:20:57;;;;;;;17.48;11.82;;;15.20;99.90;;;;;;5055650;28;20076;-76
2023/08/23 05:23:23;;;;;;;15.88;10.63;;;15.20;99.90;;;;;;5053543;28;20128;-77
2023/08/23 05:25:51;;;;;;;15.82;10.82;;;15.30;99.90;;;;;;5053255;28;20053;-76
2023/08/23 05:28:21;;;;;;;15.23;10.70;;;15.30;99.90;;;;;;5053829;28;20053;-77
2023/08/23 05:30:47;;;;;;;15.95;10.50;;;15.30;99.90;;;;;;5053515;28;20049;-77
2023/08/23 05:33:13;;;;;;;18.67;9.93;;;15.30;99.90;;;;;;5053778;28;20419;-78
2023/08/23 05:35:43;;;;;;;16.23;10.68;;;15.40;99.90;;;;;;5053236;28;20107;-78
2023/08/23 05:38:09;;;;;;;16.67;10.50;;;15.50;99.90;;;;;;5053174;28;20049;-78
2023/08/23 05:40:36;;;;;;;17.08;10.48;;;15.50;99.90;;;;;;5056450;28;20507;-78
2023/08/23 05:43:02;;;;;;;17.05;11.02;;;15.60;99.90;;;;;;5039415;28;20080;-78
2023/08/23 05:45:27;;;;;;;19.10;11.55;;;15.70;99.90;;;;;;5056965;28;20134;-77
2023/08/23 05:47:59;;;;;;;17.65;10.40;;;15.80;99.90;;;;;;5056917;28;20048;-77
2023/08/23 05:50:25;;;;;;;14.65;8.77;;;15.90;99.90;;;;;;5056830;28;20057;-78
2023/08/23 05:52:50;;;;;;;10.65;6.38;;;16.00;99.90;;;;;;5056749;28;20154;-77
2023/08/23 05:55:16;;;;;;;10.18;7.25;;;16.00;99.90;;;;;;5056821;28;20131;-78
2023/08/23 05:57:42;;;;;;;13.88;9.25;;;16.00;99.90;;;;;;5056370;28;20050;-78
2023/08/23 06:00:09;;;;;;;13.65;8.45;;;16.00;99.90;;;;;;5056635;28;20128;-77
2023/08/23 06:02:35;;;;;;;17.50;10.95;;;16.10;99.90;;;;;;5056550;28;20048;-77
2023/08/23 06:05:02;;;;;;;20.65;11.63;;;16.10;99.90;;;;;;5056545;28;20057;-77
2023/08/23 06:07:28;;;;;;;20.13;11.98;;;16.20;99.90;;;;;;5056552;28;20053;-76
2023/08/23 06:09:53;;;;;;;17.33;11.48;;;16.30;99.90;;;;;;5022253;28;20056;-77
2023/08/23 06:12:19;;;;;;;16.75;11.82;;;16.40;99.90;;;;;;5055997;28;20107;-70
2023/08/23 06:14:46;;;;;;;18.85;11.85;;;16.40;99.90;;;;;;5038783;28;20060;-69
2023/08/23 06:17:12;;;;;;;20.45;12.20;;;16.40;99.90;;;;;;5056144;28;20049;-69
2023/08/23 06:19:38;;;;;;;21.75;11.65;;;16.40;99.90;;;;;;5056270;28;20102;-69
2023/08/23 06:22:04;;;;;;;18.90;11.50;;;16.30;99.90;;;;;;5038605;28;20394;-69
2023/08/23 06:24:29;;;;;;;17.80;11.73;;;16.30;99.90;;;;;;5056112;28;20044;-69
2023/08/23 06:26:55;;;;;;;19.13;11.60;;;16.40;99.90;;;;;;5056728;28;20068;-69
2023/08/23 06:29:21;;;;;;;18.40;12.07;;;16.50;99.90;;;;;;5055709;28;20075;-69
2023/08/23 06:31:46;;;;;;;19.55;12.45;;;16.60;99.90;;;;;;5056635;28;20064;-68
2023/08/23 06:34:12;;;;;;;19.27;11.98;;;16.70;99.90;;;;;;5056145;28;20045;-68
2023/08/23 06:36:38;;;;;;;17.20;11.95;;;16.80;99.90;;;;;;5038238;28;20124;-69
2023/08/23 06:39:03;;;;;;;17.48;12.02;;;16.90;99.90;;;;;;5055958;28;20049;-69
2023/08/23 06:41:29;;;;;;;16.58;10.88;;;17.00;99.90;;;;;;5038252;28;20080;-69
2023/08/23 06:44:00;;;;;;;18.05;11.95;;;17.10;99.90;;;;;;5055761;28;20053;-70
2023/08/23 06:46:25;;;;;;;17.42;10.23;;;17.30;99.90;;;;;;5055815;28;20049;-69
2023/08/23 06:48:51;;;;;;;14.55;10.50;;;17.40;99.90;;;;;;5056545;28;20203;-69
2023/08/23 06:51:17;;;;;;;15.02;10.10;;;17.50;99.90;;;;;;5054675;28;20040;-69
2023/08/23 06:53:42;;;;;;;14.30;9.00;;;17.50;99.90;;;;;;5055605;28;20397;-69
2023/08/23 06:56:09;;;;;;;12.32;8.55;;;17.60;99.90;;;;;;5037817;28;20056;-70
2023/08/23 06:58:35;;;;;;;13.98;9.40;;;17.60;99.90;;;;;;5055536;28;20124;-69
2023/08/23 07:01:01;;;;;;;14.45;9.68;;;17.60;99.90;;;;;;5055526;28;20119;-70
2023/08/23 07:03:27;;;;;;;17.08;10.02;;;17.80;99.90;;;;;;5055736;28;20470;-69
2023/08/23 07:05:52;;;;;;;12.13;9.18;;;17.90;99.90;;;;;;5055406;28;20132;-69
2023/08/23 07:08:18;;;;;;;13.68;8.85;;;18.10;99.90;;;;;;5038690;28;20044;-69
2023/08/23 07:10:44;;;;;;;16.17;9.05;;;18.20;99.90;;;;;;5055323;28;20437;-69
2023/08/23 07:13:10;;;;;;;11.20;8.85;;;18.30;99.90;;;;;;5055283;28;20053;-68
2023/08/23 07:15:35;;;;;;;13.02;8.68;;;18.30;99.90;;;;;;5054632;28;20045;-70
2023/08/23 07:18:01;;;;;;;11.15;7.90;;;18.30;99.90;;;;;;5055229;28;20045;-70
2023/08/23 07:20:27;;;;;;;14.73;8.85;;;18.50;99.90;;;;;;5056066;28;20037;-70
2023/08/23 07:22:53;;;;;;;13.88;8.02;;;18.60;99.90;;;;;;5055432;28;20558;-70
2023/08/23 07:25:18;;;;;;;12.27;7.32;;;18.70;99.90;;;;;;5054924;28;20052;-70
2023/08/23 07:27:44;;;;;;;12.98;7.80;;;18.80;99.90;;;;;;5055261;28;20151;-70
2023/08/23 07:30:11;;;;;;;11.05;7.82;;;18.90;99.90;;;;;;5055079;28;20398;-69
2023/08/23 07:32:37;;;;;;;10.98;7.50;;;19.00;99.90;;;;;;5037183;28;20470;-70
2023/08/23 07:35:03;;;;;;;10.20;7.43;;;19.10;99.90;;;;;;5037119;28;20048;-70
2023/08/23 07:37:29;;;;;;;11.38;7.68;;;19.10;99.90;;;;;;5054786;28;20044;-70
2023/08/23 07:39:55;;;;;;;9.75;7.07;;;19.00;99.90;;;;;;5055091;28;20095;-70
2023/08/23 07:42:21;;;;;;;9.48;6.43;;;18.90;99.90;;;;;;5054298;28;20560;-70
2023/08/23 07:44:47;;;;;;;9.90;6.68;;;19.00;99.90;;;;;;5036839;28;20045;-70
2023/08/23 07:47:12;;;;;;;8.70;6.30;;;19.00;99.90;;;;;;5054802;28;20090;-71
2023/08/23 07:49:38;;;;;;;10.20;6.68;;;19.10;99.90;;;;;;5054382;28;20477;-70
2023/08/23 07:52:04;;;;;;;10.48;6.85;;;19.10;99.90;;;;;;5054419;28;20084;-71
2023/08/23 07:54:30;;;;;;;9.98;7.40;;;19.10;99.90;;;;;;5054355;28;20064;-71
2023/08/23 07:56:56;;;;;;;12.82;6.75;;;19.10;99.90;;;;;;5054584;28;20036;-71
2023/08/23 07:59:21;;;;;;;9.40;7.00;;;19.10;99.90;;;;;;5037438;28;20052;-70
2023/08/23 08:01:47;;;;;;;10.00;7.10;;;19.10;99.90;;;;;;5036727;28;20480;-70
2023/08/23 08:04:13;;;;;;;8.52;6.25;;;19.00;99.90;;;;;;5054913;28;20123;-71
2023/08/23 08:06:39;;;;;;;10.70;7.18;;;19.10;99.90;;;;;;5054175;28;20044;-71
2023/08/23 08:09:05;;;;;;;12.55;8.10;;;19.20;99.90;;;;;;5054097;28;20079;-72
2023/08/23 08:11:31;;;;;;;11.38;7.30;;;19.30;99.90;;;;;;5053440;28;20072;-72
2023/08/23 08:13:57;;;;;;;12.68;7.13;;;19.40;99.90;;;;;;5036304;28;20041;-71
2023/08/23 08:16:23;;;;;;;10.80;6.95;;;19.50;99.90;;;;;;5054072;28;20440;-71
2023/08/23 08:18:49;;;;;;;11.43;8.00;;;19.60;99.90;;;;;;5054183;28;20045;-72
2023/08/23 08:21:14;;;;;;;9.95;6.93;;;19.70;99.90;;;;;;5036867;28;20057;-71
2023/08/23 08:23:40;;;;;;;8.85;6.88;;;19.80;99.90;;;;;;5053789;28;20071;-71
2023/08/23 08:26:07;;;;;;;10.20;6.75;;;19.80;99.90;;;;;;5053830;28;20102;-71
2023/08/23 08:28:33;;;;;;;9.48;6.90;;;19.90;99.90;;;;;;5053607;28;20049;-75
2023/08/23 08:30:59;;;;;;;9.77;7.00;;;20.00;99.90;;;;;;5053704;28;20049;-72
2023/08/23 08:33:24;;;;;;;12.88;7.18;;;20.10;99.90;;;;;;5053796;28;20052;-71
2023/08/23 08:35:50;;;;;;;7.50;5.65;;;20.20;99.90;;;;;;5035879;28;20040;-71
2023/08/23 08:38:16;;;;;;;9.68;6.30;;;20.30;99.90;;;;;;5054718;28;20114;-70
2023/08/23 08:40:42;;;;;;;6.07;4.05;;;20.30;99.90;;;;;;5053694;28;20089;-70
2023/08/23 08:43:07;;;;;;;7.00;4.82;;;20.40;99.90;;;;;;5054442;28;20095;-69
2023/08/23 08:45:34;;;;;;;7.20;5.30;;;20.50;99.90;;;;;;5036524;28;20477;-71
2023/08/23 08:47:59;;;;;;;7.00;5.00;;;20.50;99.90;;;;;;5036037;28;20051;-70
2023/08/23 08:50:29;;;;;;;5.45;3.88;;;20.70;99.90;;;;;;5053404;28;20468;-71
2023/08/23 08:52:59;;;;;;;4.93;3.47;;;20.80;99.90;;;;;;5053482;28;20041;-70
2023/08/23 08:55:25;;;;;;;5.85;3.13;;;20.80;99.90;;;;;;5053853;28;20041;-72
2023/08/23 08:57:53;;;;;;;5.20;3.80;;;21.00;99.90;;;;;;5053529;28;20402;-72
2023/08/23 09:00:22;;;;;;;4.63;3.50;;;21.00;99.90;;;;;;5053369;28;20119;-71
2023/08/23 09:02:51;;;;;;;5.65;2.67;;;21.10;99.90;;;;;;5054014;28;20131;-72
2023/08/23 09:05:19;;;;;;;4.30;2.72;;;21.10;99.90;;;;;;5036703;28;20053;-72
2023/08/23 09:07:45;;;;;;;3.97;2.97;;;21.20;99.90;;;;;;5035763;28;20045;-72
2023/08/23 09:10:11;;;;;;;5.18;3.10;;;21.30;99.90;;;;;;5053195;28;20052;-71
2023/08/23 09:12:37;;;;;;;4.28;2.97;;;21.40;99.90;;;;;;5053286;28;20186;-71
2023/08/23 09:15:07;;;;;;;3.70;2.13;;;21.50;99.90;;;;;;5055377;28;20044;-72
2023/08/23 09:17:36;;;;;;;3.83;2.58;;;21.60;99.90;;;;;;5058305;28;20452;-72
2023/08/23 09:20:06;;;;;;;3.42;2.15;;;21.60;99.90;;;;;;5057937;28;20409;-72
2023/08/23 09:22:33;;;;;;;4.03;2.15;;;21.70;99.90;;;;;;5039748;28;20106;-72
2023/08/23 09:25:00;;;;;;;3.40;1.95;;;21.70;99.90;;;;;;5057312;28;20060;-72
2023/08/23 09:27:26;;;;;;;4.30;2.83;;;21.80;99.90;;;;;;5039320;28;20045;-74
2023/08/23 09:30:01;;;;;;;4.10;2.60;;;21.90;99.90;;;;;;5056825;28;20095;-72
2023/08/23 09:32:27;;;;;;;3.70;2.63;;;21.90;99.90;;;;;;5057175;28;20489;-72
2023/08/23 09:34:53;;;;;;;4.18;3.00;;;21.90;99.90;;;;;;5057501;28;20075;-72
2023/08/23 09:37:18;;;;;;;4.25;2.70;;;22.00;99.90;;;;;;5056868;28;20041;-73
2023/08/23 09:39:44;;;;;;;3.65;2.47;;;22.20;99.90;;;;;;5057061;28;20045;-72
2023/08/23 09:42:14;;;;;;;3.17;2.40;;;22.30;99.90;;;;;;5056967;28;20135;-71
2023/08/23 09:44:41;;;;;;;3.78;2.40;;;22.30;99.90;;;;;;5039504;28;20114;-71
2023/08/23 09:47:17;;;;;;;3.78;2.10;;;22.40;99.90;;;;;;5056666;28;20110;-70
2023/08/23 09:49:46;;;;;;;;;;;22.50;99.90;;;;;;5057497;28;20428;-71
2023/08/23 09:52:12;;;;;;;4.65;2.70;;;22.50;99.90;;;;;;5056533;28;19928;-72
2023/08/23 09:54:56;;;;;;;3.72;1.80;;;22.50;99.90;;;;;;5056649;28;20049;-71
2023/08/23 09:57:23;;;;;;;2.72;1.63;;;22.50;99.90;;;;;;5056583;28;20079;-71
2023/08/23 09:59:50;;;;;;;3.53;2.00;;;22.70;99.90;;;;;;5056520;28;20394;-71
2023/08/23 10:02:17;;;;;;;4.10;1.90;;;22.70;99.90;;;;;;5057283;28;20045;-68
2023/08/23 10:04:44;;;;;;;3.35;2.22;;;22.80;99.90;;;;;;5056496;28;20110;-72
2023/08/23 10:07:11;;;;;;;2.83;1.95;;;22.80;99.90;;;;;;5056454;28;20131;-71
2023/08/23 10:09:38;;;;;;;4.15;2.20;;;22.90;99.90;;;;;;5056385;28;20428;-70
2023/08/23 10:12:06;;;;;;;3.45;2.17;;;22.90;99.90;;;;;;5056380;28;20068;-71
2023/08/23 10:14:36;;;;;;;3.35;1.77;;;23.00;99.90;;;;;;5038719;28;20053;-70
2023/08/23 10:17:04;;;;;;;5.38;2.28;;;23.10;99.90;;;;;;5056990;28;20131;-70
2023/08/23 10:19:31;;;;;;;3.92;2.20;;;23.10;99.90;;;;;;5038503;28;20102;-71
2023/08/23 10:21:57;;;;;;;2.90;1.83;;;23.10;99.90;;;;;;5038498;28;20049;-70
2023/08/23 10:24:28;;;;;;;2.88;1.75;;;23.20;99.90;;;;;;5056058;28;20045;-70
2023/08/23 10:26:54;;;;;;;2.50;1.67;;;23.20;99.90;;;;;;5056265;28;20049;-72
2023/08/23 10:29:26;;;;;;;3.78;1.80;;;23.30;99.90;;;;;;5038018;28;20064;-70
2023/08/23 10:31:53;;;;;;;2.72;1.60;;;23.30;99.90;;;;;;5038371;28;20057;-71
2023/08/23 10:34:26;;;;;;;3.38;1.70;;;23.50;99.90;;;;;;5056226;28;20049;-68
2023/08/23 10:36:53;;;;;;;2.53;1.52;;;23.60;99.90;;;;;;5056287;28;20049;-70
2023/08/23 10:39:23;;;;;;;2.95;1.77;;;23.70;99.90;;;;;;5056806;28;20076;-71
2023/08/23 10:41:53;;;;;;;2.97;1.73;;;23.80;99.90;;;;;;5055860;28;20048;-70
2023/08/23 10:44:20;;;;;;;2.20;1.40;;;23.90;99.90;;;;;;5038126;28;20041;-70
2023/08/23 10:46:49;;;;;;;2.63;1.38;;;24.00;99.90;;;;;;5055782;28;20053;-71
2023/08/23 10:49:20;;;;;;;2.83;1.63;;;24.00;99.90;;;;;;5055643;28;20501;-70
2023/08/23 10:51:46;;;;;;;2.13;1.42;;;24.10;99.90;;;;;;5055741;28;20128;-69
2023/08/23 10:54:16;;;;;;;3.03;1.50;;;24.20;99.90;;;;;;5055639;28;20099;-69
2023/08/23 10:56:42;;;;;;;2.50;1.52;;;24.30;99.90;;;;;;5055561;28;20084;-70
2023/08/23 10:59:08;;;;;;;2.30;1.45;;;24.30;99.90;;;;;;5055510;28;20444;-70
2023/08/23 11:01:40;;;;;;;2.33;1.38;;;24.30;99.90;;;;;;5056007;28;20091;-69
2023/08/23 11:04:07;;;;;;;3.10;1.63;;;24.30;99.90;;;;;;5055758;28;20045;-69
2023/08/23 11:06:33;;;;;;;3.03;1.65;;;24.30;99.90;;;;;;5055346;28;20375;-69
2023/08/23 11:08:59;;;;;;;3.17;1.52;;;24.40;99.90;;;;;;5037728;28;20060;-70
2023/08/23 11:11:29;;;;;;;2.13;1.38;;;24.50;99.90;;;;;;5055192;28;20045;-70
2023/08/23 11:13:54;;;;;;;2.65;1.40;;;24.60;99.90;;;;;;5055825;28;20476;-69
2023/08/23 11:16:22;;;;;;;3.33;1.63;;;24.60;99.90;;;;;;5055260;28;20081;-69
2023/08/23 11:18:48;;;;;;;2.53;1.40;;;24.70;99.90;;;;;;5055167;28;20049;-70
2023/08/23 11:21:14;;;;;;;2.75;1.30;;;24.70;99.90;;;;;;5055035;28;20051;-69
2023/08/23 11:23:40;;;;;;;3.45;1.60;;;24.70;99.90;;;;;;5054873;28;20409;-71
2023/08/23 11:26:05;;;;;;;2.42;1.33;;;24.50;99.90;;;;;;5037369;28;20052;-72
2023/08/23 11:28:31;;;;;;;3.72;1.52;;;24.40;99.90;;;;;;5054505;28;20041;-70
2023/08/23 11:31:06;;;;;;;2.70;1.67;;;24.50;99.90;;;;;;5054833;28;20045;-71
2023/08/23 11:33:33;;;;;;;2.47;1.40;;;24.60;99.90;;;;;;5054922;28;20084;-70
2023/08/23 11:36:00;;;;;;;3.22;1.50;;;24.60;99.90;;;;;;5054825;28;20044;-71
2023/08/23 11:38:29;;;;;;;2.63;1.48;;;24.60;99.90;;;;;;5054123;28;20110;-72
2023/08/23 11:40:57;;;;;;;2.95;1.60;;;24.40;99.90;;;;;;5054718;28;20037;-71
2023/08/23 11:43:28;;;;;;;2.40;1.45;;;24.40;99.90;;;;;;5055141;28;20047;-70
2023/08/23 11:45:54;;;;;;;2.80;1.45;;;24.20;99.90;;;;;;5054688;28;20063;-73
2023/08/23 11:48:23;;;;;;;2.80;1.58;;;24.10;99.90;;;;;;5054774;28;20079;-73
2023/08/23 11:50:52;;;;;;;2.80;1.70;;;24.10;99.90;;;;;;5054268;28;20051;-73
2023/08/23 11:53:18;;;;;;;2.10;1.20;;;24.30;99.90;;;;;;5036640;28;20131;-74
2023/08/23 11:55:44;;;;;;;3.58;1.90;;;24.50;99.90;;;;;;5055024;28;20128;-75
2023/08/23 11:58:10;;;;;;;5.53;2.33;;;24.60;99.90;;;;;;5036857;28;20182;-72
2023/08/23 12:00:35;;;;;;;4.50;1.60;;;24.70;99.90;;;;;;5036009;28;20406;-73
2023/08/23 12:03:02;;;;;;;2.63;1.30;;;24.80;99.90;;;;;;5054621;28;20086;-72
2023/08/23 12:05:27;;;;;;;4.72;1.58;;;25.00;99.90;;;;;;5052880;28;20053;-72
2023/08/23 12:07:53;;;;;;;3.20;1.75;;;25.00;99.90;;;;;;5036530;28;20048;-72
2023/08/23 12:10:19;;;;;;;3.15;1.50;;;24.70;99.90;;;;;;5053907;28;20048;-71
2023/08/23 12:12:45;;;;;;;3.28;1.50;;;24.70;99.90;;;;;;5036765;28;20128;-72
2023/08/23 12:15:11;;;;;;;3.67;1.98;;;24.70;99.90;;;;;;5053364;28;20508;-71
2023/08/23 12:17:37;;;;;;;3.97;1.90;;;24.60;99.90;;;;;;5054460;28;20079;-71
2023/08/23 12:20:04;;;;;;;2.78;1.85;;;24.40;99.90;;;;;;5053610;28;20124;-72
2023/08/23 12:22:30;;;;;;;3.60;1.75;;;24.30;99.90;;;;;;5053690;28;20057;-71
2023/08/23 12:24:55;;;;;;;2.55;1.63;;;24.10;99.90;;;;;;5053111;28;20122;-71
2023/08/23 12:27:21;;;;;;;3.03;1.60;;;24.00;99.90;;;;;;5054081;28;20055;-71
2023/08/23 12:29:47;;;;;;;1.95;1.20;;;23.80;99.90;;;;;;5053182;28;20052;-72
2023/08/23 12:32:12;;;;;;;3.30;1.23;;;23.70;99.90;;;;;;5054380;28;20049;-70
2023/08/23 12:34:38;;;;;;;2.88;1.50;;;23.90;99.90;;;;;;5053459;28;20048;-70
2023/08/23 12:37:04;;;;;;;2.30;1.20;;;24.10;99.90;;;;;;5053912;28;20394;-70